Time;durP1;ratioP1;P1;durP2;ratioP2;P2;SDS_P1;SDS_P2;PMS_P1;PMS_P2;Temp;Humidity;BMP_temperature;BMP_pressure;BME280_temperature;BME280_humidity;BME280_pressure;Samples;Min_cycle;Max_cycle;Signal;HPM_P1;HPM_P2
2022/08/16 00:01:51;;;;;;;12.52;9.60;;;;;;;20.82;60.74;95011.28;5025975;28;20120;-83
2022/08/16 00:04:17;;;;;;;12.73;9.43;;;;;;;20.77;60.71;95022.94;5028558;28;20025;-82
2022/08/16 00:06:42;;;;;;;13.77;10.40;;;;;;;20.78;60.98;95019.13;5027596;28;20029;-83
2022/08/16 00:09:08;;;;;;;11.77;9.20;;;;;;;20.70;61.43;95016.88;5027973;28;20021;-83
2022/08/16 00:11:33;;;;;;;10.43;9.32;;;;;;;20.72;61.86;95017.41;5027793;28;20152;-83
2022/08/16 00:13:59;;;;;;;10.20;8.85;;;;;;;20.70;61.83;95020.41;5027072;28;20040;-83
2022/08/16 00:16:28;;;;;;;14.10;9.35;;;;;;;20.63;61.82;95014.31;5027299;28;20038;-83
2022/08/16 00:18:53;;;;;;;11.50;9.57;;;;;;;20.62;61.74;95013.47;5026860;28;20025;-83
2022/08/16 00:21:19;;;;;;;10.90;9.35;;;;;;;20.70;61.71;95014.13;5028450;28;20021;-84
2022/08/16 00:23:44;;;;;;;10.18;8.70;;;;;;;20.63;61.85;95020.56;5027297;28;20021;-84
2022/08/16 00:26:10;;;;;;;11.25;8.02;;;;;;;20.62;61.77;95015.38;5027821;28;20087;-83
2022/08/16 00:28:35;;;;;;;8.43;7.35;;;;;;;20.65;61.42;95017.59;5027482;28;20079;-84
2022/08/16 00:31:01;;;;;;;9.40;7.82;;;;;;;20.58;61.59;95020.53;5027503;28;20026;-84
2022/08/16 00:33:26;;;;;;;9.15;8.25;;;;;;;20.54;61.86;95022.06;5026732;28;20048;-83
2022/08/16 00:35:52;;;;;;;12.05;8.65;;;;;;;20.44;62.15;95028.19;5038216;28;20036;-84
2022/08/16 00:38:17;;;;;;;9.68;8.05;;;;;;;20.41;61.91;95027.91;5037584;28;20021;-84
2022/08/16 00:40:47;;;;;;;14.13;8.75;;;;;;;20.36;62.24;95032.16;5039067;28;20030;-82
2022/08/16 00:43:18;;;;;;;10.27;8.25;;;;;;;20.28;63.07;95024.41;5038245;28;20017;-83
2022/08/16 00:46:02;;;;;;;12.38;8.23;;;;;;;20.28;62.86;95020.91;5038313;28;20041;-83
2022/08/16 00:48:29;;;;;;;10.05;8.63;;;;;;;20.17;62.97;95037.06;5027527;28;20084;-83
2022/08/16 00:50:54;;;;;;;9.63;8.20;;;;;;;20.16;63.22;95045.47;5028104;28;20056;-83
2022/08/16 00:53:20;;;;;;;11.32;8.15;;;;;;;20.09;63.54;95049.19;5026550;28;20030;-83
2022/08/16 00:55:47;;;;;;;12.52;8.57;;;;;;;20.08;63.83;95041.25;5028303;28;20577;-83
2022/08/16 00:58:14;;;;;;;10.00;7.95;;;;;;;20.07;63.47;95045.88;5009000;28;20452;-83
2022/08/16 01:00:40;;;;;;;12.10;8.80;;;;;;;20.05;63.79;95052.66;5027961;28;20099;-84
2022/08/16 01:03:07;;;;;;;9.75;8.13;;;;;;;20.11;63.77;95052.50;5026755;28;20439;-84
2022/08/16 01:05:33;;;;;;;11.70;8.45;;;;;;;20.11;63.64;95048.94;5027513;28;20088;-83
2022/08/16 01:07:58;;;;;;;9.25;7.63;;;;;;;20.12;63.66;95059.56;5026084;28;20037;-83
2022/08/16 01:10:25;;;;;;;11.68;7.90;;;;;;;20.22;62.90;95058.09;5008801;28;20448;-83
2022/08/16 01:12:50;;;;;;;10.00;8.15;;;;;;;20.17;63.37;95058.03;5027585;28;20017;-82
2022/08/16 01:15:16;;;;;;;9.00;8.10;;;;;;;20.20;63.33;95060.25;5024847;28;20378;-83
2022/08/16 01:17:42;;;;;;;10.00;8.23;;;;;;;20.24;63.16;95064.97;5027298;28;20040;-84
2022/08/16 01:20:08;;;;;;;9.63;7.88;;;;;;;20.26;62.74;95064.72;5008874;28;20025;-83
2022/08/16 01:22:33;;;;;;;12.23;8.88;;;;;;;20.32;63.12;95063.72;5025823;28;20025;-83
2022/08/16 01:25:05;;;;;;;10.80;8.27;;;;;;;20.32;62.86;95069.16;5026623;28;20037;-83
2022/08/16 01:27:37;;;;;;;9.68;8.15;;;;;;;20.42;62.70;95062.22;5008557;28;20103;-83
2022/08/16 01:30:24;;;;;;;9.18;8.05;;;;;;;20.36;63.12;95066.78;5026123;28;20061;-83
2022/08/16 01:32:50;;;;;;;12.07;8.70;;;;;;;20.34;63.01;95072.47;5026165;28;20053;-83
2022/08/16 01:35:22;;;;;;;10.55;8.50;;;;;;;20.29;63.23;95061.47;5028585;28;20060;-83
2022/08/16 01:37:51;;;;;;;10.75;8.38;;;;;;;20.31;63.42;95061.25;5025215;28;20021;-84
2022/08/16 01:40:17;;;;;;;11.82;8.55;;;;;;;20.25;63.49;95057.59;5027249;28;20032;-83
2022/08/16 01:42:43;;;;;;;9.73;8.02;;;;;;;20.19;63.22;95072.19;5026704;28;20385;-84
2022/08/16 01:45:08;;;;;;;10.05;8.35;;;;;;;20.17;63.23;95074.38;5025848;28;20417;-83
2022/08/16 01:47:35;;;;;;;9.07;8.18;;;;;;;20.16;63.51;95075.41;5027672;28;20025;-84
2022/08/16 01:50:00;;;;;;;11.20;8.10;;;;;;;20.19;63.03;95074.91;5008441;28;20029;-83
2022/08/16 01:52:25;;;;;;;10.60;7.53;;;;;;;20.19;63.13;95085.81;5027524;28;20025;-83
2022/08/16 01:54:51;;;;;;;11.73;8.48;;;;;;;20.21;63.53;95089.97;5024697;28;20022;-83
2022/08/16 01:57:16;;;;;;;11.20;8.32;;;;;;;20.26;63.11;95087.28;5027058;28;20472;-83
2022/08/16 01:59:42;;;;;;;10.75;8.20;;;;;;;20.14;63.15;95086.56;5025771;28;20025;-83
2022/08/16 02:02:08;;;;;;;13.75;8.30;;;;;;;20.19;62.72;95096.69;5026786;28;20025;-83
2022/08/16 02:04:33;;;;;;;9.27;8.00;;;;;;;20.21;62.85;95102.72;5024908;28;20037;-83
2022/08/16 02:06:59;;;;;;;11.65;8.00;;;;;;;20.17;62.81;95126.09;5025925;28;20500;-83
2022/08/16 02:09:25;;;;;;;10.50;8.60;;;;;;;20.05;63.20;95118.81;5026602;28;20029;-83
2022/08/16 02:11:56;;;;;;;9.63;8.45;;;;;;;19.97;63.31;95120.00;5025753;28;20026;-83
2022/08/16 02:14:24;;;;;;;10.50;8.75;;;;;;;19.86;63.76;95134.50;5027474;28;20576;-84
2022/08/16 02:16:50;;;;;;;10.88;9.13;;;;;;;19.65;64.63;95134.09;5025827;28;20049;-83
2022/08/16 02:19:19;;;;;;;12.70;8.65;;;;;;;19.60;64.81;95131.28;5026934;28;20022;-82
2022/08/16 02:21:49;;;;;;;11.02;9.05;;;;;;;19.73;64.41;95127.44;5026678;28;20026;-84
2022/08/16 02:24:14;;;;;;;13.48;9.85;;;;;;;19.82;63.52;95127.88;5008632;28;20524;-83
2022/08/16 02:26:39;;;;;;;14.00;10.05;;;;;;;19.77;63.70;95117.72;5026127;28;20079;-84
2022/08/16 02:29:05;;;;;;;12.48;10.25;;;;;;;19.73;64.07;95122.81;5025754;28;20140;-83
2022/08/16 02:31:30;;;;;;;12.90;9.75;;;;;;;19.50;65.52;95129.19;5026794;28;20017;-84
2022/08/16 02:33:56;;;;;;;12.00;10.18;;;;;;;19.22;67.19;95133.50;5025600;28;20239;-83
2022/08/16 02:36:21;;;;;;;14.55;11.32;;;;;;;19.11;68.39;95135.16;5026701;28;20060;-83
2022/08/16 02:38:47;;;;;;;14.60;10.98;;;;;;;19.12;69.40;95121.34;5026565;28;20087;-84
2022/08/16 02:41:12;;;;;;;12.45;10.43;;;;;;;19.19;69.94;95123.94;5029874;28;20033;-84
2022/08/16 02:43:38;;;;;;;18.40;10.52;;;;;;;19.28;69.98;95121.69;5029507;28;20025;-83
2022/08/16 02:46:04;;;;;;;11.65;9.77;;;;;;;19.44;70.15;95121.97;5030360;28;20587;-84
2022/08/16 02:48:29;;;;;;;12.23;9.63;;;;;;;19.45;70.56;95121.75;5029813;28;20496;-84
2022/08/16 02:50:56;;;;;;;12.73;10.18;;;;;;;19.31;71.47;95125.78;5029041;28;20068;-85
2022/08/16 02:53:22;;;;;;;16.23;11.00;;;;;;;19.29;71.14;95123.31;5030277;28;20835;-84
2022/08/16 02:55:48;;;;;;;14.45;10.73;;;;;;;19.26;71.55;95129.25;5028645;28;20033;-84
2022/08/16 02:58:13;;;;;;;12.80;10.18;;;;;;;19.24;71.52;95125.94;5036989;28;20029;-84
2022/08/16 03:00:39;;;;;;;12.48;10.38;;;;;;;19.17;71.86;95122.53;5042685;28;20026;-84
2022/08/16 03:03:05;;;;;;;13.20;10.55;;;;;;;19.33;71.54;95119.03;5042519;28;20029;-84
2022/08/16 03:05:31;;;;;;;11.65;9.80;;;;;;;19.31;71.39;95118.47;5035590;28;20022;-85
2022/08/16 03:07:56;;;;;;;12.75;9.98;;;;;;;19.46;71.12;95117.13;5030118;28;20026;-84
2022/08/16 03:10:22;;;;;;;12.27;10.65;;;;;;;19.52;70.77;95114.25;5030445;28;20033;-84
2022/08/16 03:12:49;;;;;;;12.95;9.98;;;;;;;19.54;70.42;95116.72;5029617;28;20490;-85
2022/08/16 03:15:14;;;;;;;12.90;9.85;;;;;;;19.70;69.83;95106.97;5030652;28;20108;-84
2022/08/16 03:17:41;;;;;;;11.10;9.43;;;;;;;19.84;69.27;95091.19;5028926;28;20113;-84
2022/08/16 03:20:07;;;;;;;12.57;9.63;;;;;;;19.92;68.99;95091.84;5030559;28;20025;-85
2022/08/16 03:22:33;;;;;;;11.55;9.25;;;;;;;19.95;68.68;95083.19;5029489;28;20027;-84
2022/08/16 03:24:59;;;;;;;12.18;9.93;;;;;;;19.94;67.87;95092.44;5029754;28;20045;-84
2022/08/16 03:27:26;;;;;;;12.57;9.50;;;;;;;19.97;67.90;95100.13;5029407;28;20034;-84
2022/08/16 03:29:51;;;;;;;16.50;9.77;;;;;;;19.85;68.50;95100.16;5029706;28;20108;-84
2022/08/16 03:32:16;;;;;;;10.73;9.25;;;;;;;19.96;68.00;95093.00;5029748;28;20056;-84
2022/08/16 03:34:42;;;;;;;11.70;9.35;;;;;;;20.06;67.70;95095.94;5028582;28;20030;-84
2022/08/16 03:37:07;;;;;;;13.18;9.43;;;;;;;20.09;67.46;95094.63;5029014;28;20025;-84
2022/08/16 03:39:33;;;;;;;13.73;9.27;;;;;;;20.10;68.28;95102.53;5028294;28;20033;-84
2022/08/16 03:41:58;;;;;;;11.63;9.27;;;;;;;20.12;68.30;95100.41;5029391;28;20026;-84
2022/08/16 03:44:24;;;;;;;12.95;9.43;;;;;;;20.22;67.97;95093.47;5029430;28;20396;-84
2022/08/16 03:46:49;;;;;;;12.30;9.20;;;;;;;20.27;67.82;95104.47;5029423;28;20410;-84
2022/08/16 03:49:16;;;;;;;11.90;9.23;;;;;;;20.29;67.46;95102.31;5029123;28;20099;-84
2022/08/16 03:51:41;;;;;;;11.00;9.30;;;;;;;20.32;68.54;95099.09;5033902;28;20036;-82
2022/08/16 03:54:07;;;;;;;10.43;8.65;;;;;;;20.35;68.28;95106.78;5028924;28;20101;-84
2022/08/16 03:56:32;;;;;;;11.57;9.52;;;;;;;20.35;67.60;95117.69;5028246;28;20491;-84
2022/08/16 03:58:59;;;;;;;12.50;9.57;;;;;;;20.38;67.93;95117.19;5028946;28;20075;-83
2022/08/16 04:01:25;;;;;;;10.95;9.27;;;;;;;20.41;67.62;95110.41;5027839;28;20030;-84
2022/08/16 04:03:51;;;;;;;11.60;9.80;;;;;;;20.43;66.29;95107.44;5029536;28;20029;-83
2022/08/16 04:06:16;;;;;;;21.27;11.38;;;;;;;20.09;66.54;95114.50;5027899;28;20022;-83
2022/08/16 04:08:42;;;;;;;16.88;10.88;;;;;;;19.88;66.74;95105.94;5029098;28;20029;-83
2022/08/16 04:11:07;;;;;;;25.75;11.15;;;;;;;19.68;67.16;95109.13;5028133;28;20021;-84
2022/08/16 04:13:33;;;;;;;25.33;11.93;;;;;;;19.67;66.46;95101.22;5028308;28;20496;-84
2022/08/16 04:16:01;;;;;;;33.80;11.90;;;;;;;19.59;66.83;95105.97;5028930;28;20566;-84
2022/08/16 04:18:26;;;;;;;37.08;13.60;;;;;;;19.57;67.03;95108.09;5027254;28;20535;-84
2022/08/16 04:20:52;;;;;;;18.77;10.95;;;;;;;19.63;66.23;95107.16;5028827;28;20017;-83
2022/08/16 04:23:17;;;;;;;25.25;12.02;;;;;;;19.69;66.07;95107.22;5027161;28;20017;-84
2022/08/16 04:25:43;;;;;;;20.52;11.40;;;;;;;19.81;66.00;95101.75;5028666;28;20485;-85
2022/08/16 04:28:08;;;;;;;23.77;12.80;;;;;;;19.82;65.63;95101.50;5026849;28;20459;-83
2022/08/16 04:30:34;;;;;;;24.52;11.27;;;;;;;19.80;65.70;95106.34;5027995;28;20075;-84
2022/08/16 04:32:59;;;;;;;20.88;11.55;;;;;;;19.89;65.17;95107.59;5027393;28;20033;-83
2022/08/16 04:35:25;;;;;;;24.25;12.00;;;;;;;19.82;65.15;95108.81;5027196;28;20068;-84
2022/08/16 04:37:50;;;;;;;29.83;13.13;;;;;;;19.74;65.29;95112.75;5027913;28;20036;-83
2022/08/16 04:40:17;;;;;;;27.13;11.95;;;;;;;19.76;65.59;95116.88;5026597;28;20450;-84
2022/08/16 04:42:42;;;;;;;18.60;11.90;;;;;;;19.80;66.03;95117.22;5027800;28;20623;-84
2022/08/16 04:45:09;;;;;;;17.30;11.63;;;;;;;19.87;66.19;95123.38;5026795;28;20022;-84
2022/08/16 04:47:35;;;;;;;21.73;11.07;;;;;;;20.05;65.71;95118.81;5028051;28;20052;-84
2022/08/16 04:50:03;;;;;;;15.98;11.27;;;;;;;20.17;65.21;95104.31;5026615;28;20377;-84
2022/08/16 04:52:28;;;;;;;21.98;11.75;;;;;;;20.30;65.43;95108.56;5027029;28;20466;-83
2022/08/16 04:54:54;;;;;;;14.80;10.93;;;;;;;20.44;64.89;95111.81;5027284;28;20339;-84
2022/08/16 04:57:20;;;;;;;14.60;11.57;;;;;;;20.52;64.33;95105.97;5026404;28;20052;-83
2022/08/16 04:59:45;;;;;;;16.10;11.80;;;;;;;20.59;64.26;95111.22;5027636;28;20033;-82
2022/08/16 05:02:10;;;;;;;15.48;10.95;;;;;;;20.73;64.30;95101.63;5025800;28;20029;-83
2022/08/16 05:04:36;;;;;;;16.40;11.23;;;;;;;20.85;65.01;95103.44;5027580;28;20041;-83
2022/08/16 05:07:01;;;;;;;15.18;10.90;;;;;;;21.02;63.82;95103.44;5026358;28;20037;-83
2022/08/16 05:09:27;;;;;;;15.40;10.75;;;;;;;21.16;62.77;95109.34;5027182;28;20030;-83
2022/08/16 05:11:52;;;;;;;15.25;10.95;;;;;;;21.28;63.43;95109.22;5026520;28;20330;-85
2022/08/16 05:14:18;;;;;;;17.00;10.75;;;;;;;21.42;63.01;95106.13;5026825;28;20029;-84
2022/08/16 05:16:43;;;;;;;15.05;10.75;;;;;;;21.53;62.91;95107.88;5026390;28;20453;-83
2022/08/16 05:19:09;;;;;;;13.95;11.05;;;;;;;21.66;62.65;95114.03;5026260;28;20495;-83
2022/08/16 05:21:35;;;;;;;16.73;11.57;;;;;;;21.81;61.86;95125.13;5027390;28;20095;-84
2022/08/16 05:24:01;;;;;;;12.32;10.63;;;;;;;21.91;61.51;95123.63;5025843;28;20546;-84
2022/08/16 05:26:27;;;;;;;13.02;10.45;;;;;;;21.95;61.21;95127.47;5027798;28;20033;-83
2022/08/16 05:28:53;;;;;;;14.18;11.05;;;;;;;21.97;61.09;95128.03;5025957;28;20500;-82
2022/08/16 05:31:18;;;;;;;11.63;10.10;;;;;;;22.09;61.72;95125.97;5027351;28;20025;-83
2022/08/16 05:33:44;;;;;;;14.02;10.88;;;;;;;22.21;61.76;95130.47;5025717;28;20029;-83
2022/08/16 05:36:09;;;;;;;11.60;10.38;;;;;;;22.38;61.10;95118.56;5026365;28;20029;-84
2022/08/16 05:38:35;;;;;;;12.50;9.95;;;;;;;22.42;60.66;95117.81;5026329;28;20515;-82
2022/08/16 05:41:01;;;;;;;12.10;9.95;;;;;;;22.36;60.77;95107.91;5025562;28;20079;-83
2022/08/16 05:43:26;;;;;;;12.95;9.63;;;;;;;22.34;60.78;95113.63;5026788;28;20025;-83
2022/08/16 05:45:52;;;;;;;11.93;9.75;;;;;;;22.44;61.04;95117.56;5025108;28;20480;-83
2022/08/16 05:48:17;;;;;;;11.63;9.70;;;;;;;22.63;60.39;95123.47;5026691;28;20033;-83
2022/08/16 05:50:43;;;;;;;10.50;9.40;;;;;;;22.79;59.95;95116.22;5025509;28;20471;-83
2022/08/16 05:53:08;;;;;;;10.10;9.07;;;;;;;22.78;59.51;95120.00;5026427;28;20435;-83
2022/08/16 05:55:34;;;;;;;13.35;9.50;;;;;;;22.96;59.16;95116.03;5026024;28;20049;-83
2022/08/16 05:57:59;;;;;;;12.50;9.75;;;;;;;23.17;59.24;95118.88;5025520;28;20060;-83
2022/08/16 06:00:25;;;;;;;10.40;9.27;;;;;;;23.14;58.59;95110.38;5026128;28;20041;-84
2022/08/16 06:02:50;;;;;;;11.32;8.50;;;;;;;23.04;58.52;95111.97;5025201;28;20029;-85
2022/08/16 06:05:16;;;;;;;9.35;8.27;;;;;;;22.97;58.43;95114.13;5026973;28;20511;-83
2022/08/16 06:07:42;;;;;;;12.32;8.43;;;;;;;22.89;58.65;95122.81;5025359;28;20420;-84
2022/08/16 06:10:07;;;;;;;10.48;8.82;;;;;;;22.84;58.55;95110.75;5026936;28;20486;-83
2022/08/16 06:12:33;;;;;;;11.32;9.13;;;;;;;22.75;59.08;95119.72;5026127;28;20037;-84
2022/08/16 06:15:01;;;;;;;10.10;8.45;;;;;;;22.64;58.96;95105.16;5029941;28;20017;-83
2022/08/16 06:17:27;;;;;;;15.60;9.38;;;;;;;22.79;59.23;95116.22;5030229;28;20037;-83
2022/08/16 06:19:53;;;;;;;10.60;8.52;;;;;;;22.93;58.31;95107.53;5029400;28;20041;-82
2022/08/16 06:22:18;;;;;;;15.35;8.85;;;;;;;22.86;57.72;95101.47;5030955;28;20031;-83
2022/08/16 06:24:44;;;;;;;14.13;9.25;;;;;;;22.90;57.85;95095.22;5029749;28;20025;-84
2022/08/16 06:27:10;;;;;;;11.35;9.13;;;;;;;23.01;58.17;95093.38;5030502;28;20036;-84
2022/08/16 06:29:35;;;;;;;12.45;9.00;;;;;;;23.10;57.85;95099.16;5029233;28;20029;-84
2022/08/16 06:32:01;;;;;;;9.98;8.45;;;;;;;23.21;57.49;95100.03;5029731;28;20045;-84
2022/08/16 06:34:27;;;;;;;11.63;8.50;;;;;;;23.52;57.21;95097.44;5029378;28;20044;-84
2022/08/16 06:36:52;;;;;;;13.50;9.45;;;;;;;23.57;56.52;95091.16;5029264;28;20029;-83
2022/08/16 06:39:17;;;;;;;11.80;9.23;;;;;;;23.65;56.42;95095.31;5029951;28;20393;-83
2022/08/16 06:41:43;;;;;;;11.15;9.05;;;;;;;23.37;56.53;95106.41;5029035;28;20041;-83
2022/08/16 06:44:09;;;;;;;10.02;8.50;;;;;;;23.29;56.87;95105.00;5029558;28;20041;-83
2022/08/16 06:46:36;;;;;;;9.30;8.35;;;;;;;23.53;56.10;95090.91;5028558;28;20029;-83
2022/08/16 06:49:03;;;;;;;10.68;7.95;;;;;;;23.56;56.25;95100.47;5029748;28;20113;-84
2022/08/16 06:51:29;;;;;;;14.32;8.70;;;;;;;23.60;55.37;95100.78;5028854;28;20113;-84
2022/08/16 06:53:54;;;;;;;11.38;8.30;;;;;;;23.91;55.53;95096.19;5029117;28;20493;-83
2022/08/16 06:56:20;;;;;;;12.18;9.27;;;;;;;23.87;55.10;95083.31;5029162;28;20089;-83
2022/08/16 06:58:45;;;;;;;9.75;8.75;;;;;;;23.92;54.20;95083.34;5028703;28;20959;-82
2022/08/16 07:01:11;;;;;;;11.55;8.70;;;;;;;23.75;54.82;95086.28;5029376;28;20403;-83
2022/08/16 07:03:36;;;;;;;9.50;8.50;;;;;;;23.86;54.63;95078.94;5028118;28;20033;-83
2022/08/16 07:06:02;;;;;;;11.02;7.80;;;;;;;24.03;54.36;95074.03;5029296;28;20033;-83
2022/08/16 07:08:27;;;;;;;12.20;8.30;;;;;;;24.12;54.30;95073.50;5028565;28;20030;-84
2022/08/16 07:10:55;;;;;;;11.38;8.63;;;;;;;24.30;53.67;95069.41;5029433;28;20498;-83
2022/08/16 07:13:20;;;;;;;10.82;8.70;;;;;;;24.39;53.57;95070.50;5028754;28;20100;-83
2022/08/16 07:15:46;;;;;;;10.38;7.97;;;;;;;24.31;53.69;95066.41;5027414;28;20566;-83
2022/08/16 07:18:14;;;;;;;11.32;8.90;;;;;;;24.38;52.93;95066.13;5027286;28;20681;-83
2022/08/16 07:20:39;;;;;;;10.10;9.10;;;;;;;24.50;52.95;95054.06;5026778;28;20087;-82
2022/08/16 07:23:05;;;;;;;10.68;7.93;;;;;;;24.75;52.57;95061.44;5027997;28;20029;-83
2022/08/16 07:25:31;;;;;;;10.82;8.18;;;;;;;25.07;51.69;95051.22;5026460;28;20111;-83
2022/08/16 07:27:57;;;;;;;13.55;8.18;;;;;;;24.99;51.57;95049.09;5027884;28;20037;-82
2022/08/16 07:30:22;;;;;;;10.05;8.07;;;;;;;25.35;50.91;95053.59;5026633;28;20078;-83
2022/08/16 07:32:49;;;;;;;11.68;8.23;;;;;;;25.10;50.63;95052.63;5027494;28;20040;-84
2022/08/16 07:35:15;;;;;;;11.05;8.07;;;;;;;24.99;50.51;95051.84;5026939;28;20045;-83
2022/08/16 07:37:41;;;;;;;13.70;9.25;;;;;;;25.07;51.20;95048.50;5026729;28;20025;-84
2022/08/16 07:40:07;;;;;;;10.68;8.48;;;;;;;24.90;51.33;95048.81;5027602;28;20053;-84
2022/08/16 07:42:33;;;;;;;9.98;7.38;;;;;;;25.15;50.22;95055.34;5026705;28;20025;-84
2022/08/16 07:44:58;;;;;;;8.77;6.57;;;;;;;25.30;49.32;95057.19;5027808;28;20026;-84
2022/08/16 07:47:24;;;;;;;9.10;6.75;;;;;;;25.26;47.18;95053.38;5026102;28;20021;-84
2022/08/16 07:49:49;;;;;;;11.55;6.93;;;;;;;25.19;48.26;95059.16;5027919;28;20091;-84
2022/08/16 07:52:15;;;;;;;7.97;6.30;;;;;;;25.38;46.51;95055.78;5026561;28;20033;-84
2022/08/16 07:54:40;;;;;;;7.47;6.50;;;;;;;25.21;47.46;95054.22;5031147;28;20052;-83
2022/08/16 07:57:05;;;;;;;9.10;6.82;;;;;;;25.13;47.69;95055.63;5033419;28;20021;-83
2022/08/16 07:59:31;;;;;;;7.65;6.00;;;;;;;25.28;46.65;95057.47;5033139;28;20024;-83
2022/08/16 08:01:56;;;;;;;8.80;5.28;;;;;;;25.42;45.21;95065.91;5030387;28;20034;-83
2022/08/16 08:04:22;;;;;;;6.40;5.55;;;;;;;25.45;45.92;95072.78;5026340;28;20045;-83
2022/08/16 08:06:47;;;;;;;8.48;5.65;;;;;;;25.37;46.98;95071.44;5027799;28;20033;-84
2022/08/16 08:09:13;;;;;;;9.93;6.20;;;;;;;25.31;46.36;95065.16;5026258;28;20055;-84
2022/08/16 08:11:38;;;;;;;10.75;6.30;;;;;;;25.41;45.98;95069.78;5027676;28;20029;-83
2022/08/16 08:14:04;;;;;;;9.13;6.20;;;;;;;25.42;46.60;95068.66;5027168;28;20064;-83
2022/08/16 08:16:30;;;;;;;8.14;6.04;;;;;;;25.41;47.46;95069.78;4988192;28;1102287;-80
2022/08/16 08:18:55;;;;;;;9.82;5.85;;;;;;;25.75;46.65;95064.69;5028272;28;20037;-83
2022/08/16 08:21:24;;;;;;;7.05;5.93;;;;;;;25.84;46.72;95062.19;5027247;28;20029;-84
2022/08/16 08:23:50;;;;;;;8.30;5.47;;;;;;;26.19;44.94;95060.28;5028357;28;20235;-82
2022/08/16 08:26:16;;;;;;;6.95;5.18;;;;;;;25.98;45.05;95060.44;5026746;28;20029;-84
2022/08/16 08:28:42;;;;;;;7.32;5.15;;;;;;;25.73;44.38;95059.47;5028080;28;20091;-83
2022/08/16 08:31:07;;;;;;;8.23;5.65;;;;;;;25.68;44.90;95052.09;5027162;28;20029;-82
2022/08/16 08:33:33;;;;;;;8.35;5.10;;;;;;;25.77;44.86;95057.00;5027492;28;20026;-82
2022/08/16 08:36:00;;;;;;;9.55;5.45;;;;;;;25.63;44.71;95057.59;5026924;28;20095;-83
2022/08/16 08:38:26;;;;;;;7.00;5.03;;;;;;;25.78;44.46;95056.72;5025389;28;20033;-82
2022/08/16 08:40:52;;;;;;;8.75;5.28;;;;;;;25.81;44.36;95058.06;5028202;28;20033;-83
2022/08/16 08:43:17;;;;;;;9.40;5.55;;;;;;;25.84;44.17;95059.44;5027092;28;20397;-83
2022/08/16 08:45:43;;;;;;;7.20;5.22;;;;;;;25.91;44.90;95066.25;5027827;28;20427;-84
2022/08/16 08:48:09;;;;;;;5.70;5.10;;;;;;;25.90;43.94;95064.63;5026469;28;20408;-83
2022/08/16 08:50:35;;;;;;;7.15;5.20;;;;;;;25.95;43.47;95055.50;5027114;28;20026;-84
2022/08/16 08:53:01;;;;;;;9.82;6.50;;;;;;;25.85;44.47;95061.91;5026616;28;20083;-82
2022/08/16 08:55:27;;;;;;;7.95;5.40;;;;;;;25.91;44.07;95054.44;5026898;28;20041;-85
2022/08/16 08:57:53;;;;;;;8.15;5.43;;;;;;;26.19;42.88;95057.53;5026910;28;20030;-83
2022/08/16 09:00:20;;;;;;;6.53;4.82;;;;;;;26.19;43.97;95057.53;5026382;28;20061;-83
2022/08/16 09:02:45;;;;;;;7.63;5.18;;;;;;;26.21;43.02;95058.09;5027570;28;20112;-83
2022/08/16 09:05:12;;;;;;;6.68;4.90;;;;;;;26.09;43.26;95052.94;5025949;28;20026;-83
2022/08/16 09:07:37;;;;;;;19.60;5.95;;;;;;;26.12;43.09;95057.03;5027103;28;20029;-82
2022/08/16 09:10:04;;;;;;;6.45;5.22;;;;;;;26.37;44.01;95050.56;5026219;28;20022;-83
2022/08/16 09:12:30;;;;;;;5.78;5.18;;;;;;;26.31;43.75;95061.84;5027081;28;20105;-83
2022/08/16 09:14:55;;;;;;;6.38;5.25;;;;;;;26.53;42.37;95058.69;5027005;28;20033;-83
2022/08/16 09:17:21;;;;;;;15.15;13.65;;;;;;;26.70;41.43;95060.97;5026150;28;20049;-83
2022/08/16 09:19:46;;;;;;;10.40;4.78;;;;;;;26.64;41.48;95059.41;5026597;28;20104;-83
2022/08/16 09:22:12;;;;;;;18.05;5.25;;;;;;;26.74;41.31;95069.47;5025727;28;20044;-83
2022/08/16 09:24:37;;;;;;;7.78;4.95;;;;;;;26.38;41.33;95068.69;5026757;28;20033;-83
2022/08/16 09:27:03;;;;;;;5.95;5.25;;;;;;;26.38;42.02;95067.88;5025872;28;20102;-83
2022/08/16 09:29:28;;;;;;;9.02;5.78;;;;;;;26.66;42.17;95068.19;5027157;28;20033;-84
2022/08/16 09:31:55;;;;;;;5.95;5.10;;;;;;;26.73;41.60;95052.16;5025994;28;20030;-85
2022/08/16 09:34:21;;;;;;;5.88;5.15;;;;;;;26.58;41.61;95064.13;5025383;28;20442;-83
2022/08/16 09:36:46;;;;;;;19.55;5.85;;;;;;;26.93;41.92;95065.97;5026335;28;20504;-83
2022/08/16 09:39:12;;;;;;;10.05;5.28;;;;;;;26.96;41.25;95060.72;5025617;28;20037;-83
2022/08/16 09:41:38;;;;;;;11.63;5.35;;;;;;;27.02;41.47;95054.09;5026791;28;20032;-83
2022/08/16 09:44:03;;;;;;;6.97;5.00;;;;;;;26.97;41.19;95045.84;5025948;28;20416;-83
2022/08/16 09:46:29;;;;;;;7.85;4.82;;;;;;;26.88;42.30;95042.09;5026882;28;20028;-83
2022/08/16 09:48:55;;;;;;;7.60;4.95;;;;;;;26.74;42.21;95052.97;5025268;28;20053;-83
2022/08/16 09:51:22;;;;;;;8.07;5.20;;;;;;;26.69;42.24;95051.09;5026656;28;20104;-82
2022/08/16 09:53:48;;;;;;;5.90;5.10;;;;;;;26.83;42.79;95050.41;5025842;28;20472;-83
2022/08/16 09:56:24;;;;;;;5.95;5.05;;;;;;;26.78;42.24;95054.84;5026333;28;20026;-83
2022/08/16 09:58:49;;;;;;;6.35;4.82;;;;;;;26.76;42.27;95050.78;5025271;28;20033;-83
2022/08/16 10:01:15;;;;;;;6.88;4.93;;;;;;;26.40;42.92;95061.00;5025685;28;20022;-82
2022/08/16 10:03:40;;;;;;;5.57;4.55;;;;;;;27.03;41.68;95044.75;5026953;28;20033;-82
2022/08/16 10:06:06;;;;;;;5.75;4.43;;;;;;;26.95;42.39;95053.59;5025376;28;20550;-83
2022/08/16 10:08:31;;;;;;;6.40;4.85;;;;;;;26.98;41.08;95042.00;5026604;28;20103;-83
2022/08/16 10:13:43;;;;;;;9.52;4.60;;;;;;;26.73;40.39;95051.34;5026057;28;20179;-83
2022/08/16 10:16:12;;;;;;;6.72;4.45;;;;;;;26.88;41.17;95031.09;5026320;28;20026;-83
2022/08/16 10:18:38;;;;;;;7.28;4.75;;;;;;;26.79;42.13;95042.72;5025010;28;20053;-82
2022/08/16 10:21:04;;;;;;;6.18;4.90;;;;;;;26.85;41.11;95053.69;5026675;28;20083;-84
2022/08/16 10:23:30;;;;;;;7.75;4.50;;;;;;;27.02;40.76;95050.50;5025327;28;20022;-83
2022/08/16 10:25:55;;;;;;;7.25;4.85;;;;;;;27.09;41.07;95053.75;5026504;28;20451;-83
2022/08/16 10:28:21;;;;;;;8.77;4.75;;;;;;;27.22;40.66;95046.72;5025458;28;20024;-83
2022/08/16 10:30:46;;;;;;;7.35;5.00;;;;;;;27.17;40.54;95049.53;5025816;28;20030;-84
2022/08/16 10:33:12;;;;;;;6.00;5.40;;;;;;;27.33;40.17;95054.84;5027507;28;20029;-84
2022/08/16 10:35:38;;;;;;;6.70;5.35;;;;;;;27.27;39.02;95060.44;5027007;28;20036;-83
2022/08/16 10:38:04;;;;;;;8.02;6.05;;;;;;;27.19;39.99;95050.06;5027825;28;20464;-83
2022/08/16 10:40:29;;;;;;;6.90;5.80;;;;;;;27.36;40.12;95044.06;5028405;28;20033;-82
2022/08/16 10:42:55;;;;;;;8.02;5.18;;;;;;;27.46;40.95;95045.88;5029839;28;20029;-86
2022/08/16 10:45:20;;;;;;;8.90;5.82;;;;;;;27.61;40.84;95044.03;5028690;28;20516;-84
2022/08/16 10:47:46;;;;;;;6.18;5.20;;;;;;;27.59;40.33;95040.75;5027488;28;20041;-83
2022/08/16 10:50:11;;;;;;;7.53;5.43;;;;;;;27.53;40.04;95046.31;5027943;28;20036;-84
2022/08/16 10:52:37;;;;;;;5.60;4.78;;;;;;;27.31;39.63;95043.31;5024973;28;20026;-83
2022/08/16 10:55:03;;;;;;;5.38;4.82;;;;;;;27.53;40.35;95035.28;5025784;28;20030;-85
2022/08/16 10:57:30;;;;;;;5.95;5.10;;;;;;;27.68;39.47;95033.47;5024601;28;20028;-83
2022/08/16 10:59:56;;;;;;;8.40;5.32;;;;;;;27.92;40.14;95035.38;5028221;28;20029;-83
2022/08/16 11:02:23;;;;;;;7.43;5.10;;;;;;;28.12;39.50;95016.84;5028075;28;20087;-83
2022/08/16 11:04:49;;;;;;;5.88;4.63;;;;;;;28.28;37.95;95027.66;5029785;28;20025;-82
2022/08/16 11:07:14;;;;;;;7.85;4.93;;;;;;;28.45;40.17;95022.44;5028948;28;20113;-83
2022/08/16 11:09:40;;;;;;;7.32;4.72;;;;;;;28.34;38.25;95020.97;5028901;28;20068;-83
2022/08/16 11:12:05;;;;;;;7.65;4.40;;;;;;;28.31;38.25;95032.56;5027408;28;20080;-84
2022/08/16 11:14:32;;;;;;;5.60;4.32;;;;;;;27.98;37.47;95028.66;5028280;28;20068;-83
2022/08/16 11:16:59;;;;;;;8.35;5.07;;;;;;;27.92;36.78;95043.63;5029005;28;20042;-84
2022/08/16 11:19:24;;;;;;;11.65;4.53;;;;;;;28.15;36.28;95041.06;5026504;28;20025;-83
2022/08/16 11:21:50;;;;;;;5.70;4.30;;;;;;;27.79;37.17;95030.59;5029522;28;20037;-84
2022/08/16 11:24:15;;;;;;;5.55;4.40;;;;;;;27.73;36.80;95030.66;5027870;28;20548;-84